Time;durP1;ratioP1;P1;durP2;ratioP2;P2;SDS_P1;SDS_P2;PMS_P1;PMS_P2;Temp;Humidity;BMP_temperature;BMP_pressure;BME280_temperature;BME280_humidity;BME280_pressure;Samples;Min_cycle;Max_cycle;Signal;HPM_P1;HPM_P2
2022/08/21 00:01:45;;;;;;;6.35;1.27;;;18.30;99.90;;;;;;4216225;28;20221;-92
2022/08/21 00:03:46;;;;;;;8.85;1.70;;;18.20;99.90;;;;;;4216394;28;20268;-92
2022/08/21 00:05:49;;;;;;;8.60;1.70;;;18.30;99.90;;;;;;4215776;28;20162;-92
2022/08/21 00:07:51;;;;;;;8.60;1.83;;;18.20;99.90;;;;;;4215515;28;20174;-91
2022/08/21 00:09:53;;;;;;;8.63;1.55;;;18.10;99.90;;;;;;4215642;28;20239;-92
2022/08/21 00:11:53;;;;;;;9.45;1.88;;;18.10;99.90;;;;;;4215645;28;20204;-91
2022/08/21 00:13:55;;;;;;;8.23;1.80;;;18.10;99.90;;;;;;4198863;28;20170;-92
2022/08/21 00:15:56;;;;;;;6.50;1.83;;;18.10;99.90;;;;;;4198473;28;20277;-92
2022/08/21 00:17:58;;;;;;;8.23;1.80;;;17.90;99.90;;;;;;4198517;28;20183;-91
2022/08/21 00:19:59;;;;;;;6.07;1.50;;;17.90;99.90;;;;;;4198343;28;20226;-91
2022/08/21 00:22:00;;;;;;;5.78;1.35;;;17.90;99.90;;;;;;4198477;28;20171;-92
2022/08/21 00:24:01;;;;;;;8.70;1.73;;;17.90;99.90;;;;;;4215058;28;20170;-92
2022/08/21 00:26:02;;;;;;;10.82;1.92;;;18.00;99.90;;;;;;4198239;28;20175;-91
2022/08/21 00:28:06;;;;;;;8.13;1.67;;;17.90;99.90;;;;;;4216162;28;20546;-91
2022/08/21 00:30:08;;;;;;;11.73;1.50;;;17.90;99.90;;;;;;4220322;28;20173;-91
2022/08/21 00:32:22;;;;;;;10.35;1.77;;;17.90;99.90;;;;;;4218448;28;20189;-91
2022/08/21 00:34:30;;;;;;;12.43;1.50;;;17.80;99.90;;;;;;4219974;28;20177;-90
2022/08/21 00:36:35;;;;;;;8.73;1.60;;;17.80;99.90;;;;;;4220416;28;20223;-90
2022/08/21 00:38:35;;;;;;;11.32;1.40;;;17.70;99.90;;;;;;4219854;28;20201;-90
2022/08/21 00:40:48;;;;;;;9.45;1.40;;;17.70;99.90;;;;;;4201656;28;20182;-91
2022/08/21 00:42:49;;;;;;;6.75;1.30;;;17.60;99.90;;;;;;4216812;28;20162;-90
2022/08/21 00:44:57;;;;;;;7.53;1.60;;;17.60;99.90;;;;;;4215397;28;20174;-91
2022/08/21 00:46:58;;;;;;;10.02;1.50;;;17.60;99.90;;;;;;4218544;28;20253;-90
2022/08/21 00:49:04;;;;;;;9.00;1.63;;;17.60;99.90;;;;;;4217473;28;20248;-91
2022/08/21 00:51:09;;;;;;;10.65;1.80;;;17.60;99.90;;;;;;4218766;28;20181;-90
2022/08/21 00:53:11;;;;;;;8.73;1.55;;;17.50;99.90;;;;;;4218824;28;20249;-90
2022/08/21 00:55:13;;;;;;;5.03;1.52;;;17.50;99.90;;;;;;4220741;28;20245;-90
2022/08/21 00:57:18;;;;;;;13.43;1.70;;;17.50;99.90;;;;;;4220703;28;20239;-90
2022/08/21 00:59:20;;;;;;;8.07;1.90;;;17.50;99.90;;;;;;4217730;28;20265;-91
2022/08/21 01:01:29;;;;;;;15.32;2.25;;;17.40;99.90;;;;;;4202714;28;20193;-90
2022/08/21 01:03:50;;;;;;;8.30;1.60;;;17.40;99.90;;;;;;4218866;28;20251;-90
2022/08/21 01:05:52;;;;;;;11.90;1.67;;;17.30;99.90;;;;;;4224989;28;20189;-90
2022/08/21 01:07:56;;;;;;;8.73;1.70;;;17.30;99.90;;;;;;4223630;28;20261;-90
2022/08/21 01:10:04;;;;;;;10.55;1.65;;;17.30;99.90;;;;;;4217144;28;20178;-90
2022/08/21 01:12:05;;;;;;;11.68;1.80;;;17.30;99.90;;;;;;4218830;28;20185;-90
2022/08/21 01:14:06;;;;;;;12.68;1.67;;;17.30;99.90;;;;;;4201351;28;20270;-90
2022/08/21 01:16:09;;;;;;;8.65;1.73;;;17.20;99.90;;;;;;4220192;28;20224;-91
2022/08/21 01:18:11;;;;;;;7.55;1.83;;;17.10;99.90;;;;;;4185208;28;20199;-90
2022/08/21 01:20:14;;;;;;;8.57;1.52;;;17.10;99.90;;;;;;4200802;28;20218;-90
2022/08/21 01:22:19;;;;;;;8.95;2.25;;;17.00;99.90;;;;;;4199750;28;20171;-90
2022/08/21 01:24:26;;;;;;;6.95;1.70;;;17.00;99.90;;;;;;4219197;28;20720;-90
2022/08/21 01:26:30;;;;;;;15.57;1.88;;;17.00;99.90;;;;;;4217739;28;20193;-90
2022/08/21 01:28:36;;;;;;;8.30;1.92;;;16.90;99.90;;;;;;4216578;28;20194;-91
2022/08/21 01:30:39;;;;;;;11.85;2.10;;;16.90;99.90;;;;;;4220920;28;20199;-90
2022/08/21 01:32:44;;;;;;;6.40;1.77;;;16.80;99.90;;;;;;4217821;28;20174;-90
2022/08/21 01:34:50;;;;;;;12.40;2.13;;;16.80;99.90;;;;;;4219116;28;20201;-90
2022/08/21 01:36:52;;;;;;;5.03;1.67;;;16.70;99.90;;;;;;4216149;28;20155;-90
2022/08/21 01:38:56;;;;;;;9.30;1.73;;;16.70;99.90;;;;;;4218395;28;20201;-90
2022/08/21 01:41:00;;;;;;;5.65;1.50;;;16.70;99.90;;;;;;4219288;28;20276;-90
2022/08/21 01:43:02;;;;;;;10.98;1.60;;;16.70;99.90;;;;;;4199512;28;20182;-90
2022/08/21 01:45:08;;;;;;;6.60;1.80;;;16.70;99.90;;;;;;4216982;28;20186;-91
2022/08/21 01:47:11;;;;;;;8.55;2.33;;;16.70;99.90;;;;;;4215606;28;20171;-91
2022/08/21 01:49:20;;;;;;;6.57;1.45;;;16.70;99.90;;;;;;4232618;28;20214;-90
2022/08/21 01:51:25;;;;;;;9.52;1.63;;;16.70;99.90;;;;;;4216705;28;20167;-90
2022/08/21 01:53:26;;;;;;;9.10;1.67;;;16.80;99.90;;;;;;4205552;28;20182;-90
2022/08/21 01:55:29;;;;;;;14.82;1.63;;;16.80;99.90;;;;;;4217748;28;20182;-90
2022/08/21 01:57:29;;;;;;;8.75;1.92;;;16.70;99.90;;;;;;4221071;28;20576;-91
2022/08/21 01:59:30;;;;;;;7.35;1.45;;;16.50;99.90;;;;;;4220647;28;20339;-91
2022/08/21 02:01:40;;;;;;;11.88;1.92;;;16.50;99.90;;;;;;4221784;28;20174;-93
2022/08/21 02:03:41;;;;;;;7.20;1.85;;;16.50;99.90;;;;;;4222425;28;20194;-90
2022/08/21 02:06:06;;;;;;;7.72;1.83;;;16.50;99.90;;;;;;4227066;28;20608;-90
2022/08/21 02:08:07;;;;;;;8.45;1.70;;;16.40;99.90;;;;;;4219159;28;20580;-90
2022/08/21 02:10:11;;;;;;;6.90;1.40;;;16.30;99.90;;;;;;4220164;28;20205;-91
2022/08/21 02:12:12;;;;;;;11.40;1.92;;;16.30;99.90;;;;;;4222611;28;20167;-90
2022/08/21 02:14:14;;;;;;;10.30;1.73;;;16.20;99.90;;;;;;4204876;28;20183;-91
2022/08/21 02:16:16;;;;;;;11.40;1.58;;;16.20;99.90;;;;;;4200768;28;20636;-91
2022/08/21 02:18:20;;;;;;;7.15;1.77;;;16.10;99.90;;;;;;4221509;28;20225;-91
2022/08/21 02:20:34;;;;;;;9.57;2.00;;;16.10;99.90;;;;;;4230558;28;20194;-90
2022/08/21 02:22:35;;;;;;;6.68;1.55;;;16.10;99.90;;;;;;4230015;28;20174;-91
2022/08/21 02:24:36;;;;;;;9.18;1.63;;;16.10;99.90;;;;;;4222893;28;20173;-90
2022/08/21 02:26:41;;;;;;;9.60;1.73;;;16.20;99.90;;;;;;4242495;28;20177;-91
2022/08/21 02:28:46;;;;;;;10.48;1.88;;;16.20;99.90;;;;;;4220136;28;20190;-91
2022/08/21 02:30:47;;;;;;;7.63;1.63;;;16.10;99.90;;;;;;4220241;28;20588;-91
2022/08/21 02:32:52;;;;;;;12.38;1.65;;;16.10;99.90;;;;;;4237280;28;20185;-90
2022/08/21 02:34:53;;;;;;;8.07;1.48;;;16.10;99.90;;;;;;4218787;28;20205;-90
2022/08/21 02:36:57;;;;;;;7.88;1.58;;;16.10;99.90;;;;;;4220081;28;20158;-91
2022/08/21 02:38:59;;;;;;;10.07;1.67;;;16.20;99.90;;;;;;4221459;28;20182;-91
2022/08/21 02:41:00;;;;;;;11.55;1.60;;;16.20;99.90;;;;;;4218800;28;20185;-91
2022/08/21 02:43:03;;;;;;;8.45;1.70;;;16.10;99.90;;;;;;4219309;28;20167;-91
2022/08/21 02:45:16;;;;;;;7.53;1.50;;;16.20;99.90;;;;;;4237561;28;20186;-90
2022/08/21 02:47:16;;;;;;;5.80;1.63;;;16.20;99.90;;;;;;4220029;28;20173;-90
2022/08/21 02:49:17;;;;;;;9.07;1.60;;;16.20;99.90;;;;;;4202983;28;20195;-91
2022/08/21 02:51:22;;;;;;;5.43;1.60;;;16.20;99.90;;;;;;4200266;28;20542;-90
2022/08/21 02:53:24;;;;;;;10.80;2.03;;;16.30;99.90;;;;;;4200765;28;20225;-91
2022/08/21 02:55:35;;;;;;;6.00;1.58;;;16.20;99.90;;;;;;4223450;28;20162;-89
2022/08/21 02:57:38;;;;;;;8.57;1.52;;;16.00;99.90;;;;;;4221353;28;20193;-91
2022/08/21 02:59:44;;;;;;;6.60;1.52;;;16.00;99.90;;;;;;4204090;28;20265;-92
2022/08/21 03:01:55;;;;;;;7.75;1.63;;;16.00;99.90;;;;;;4233998;28;20173;-90
2022/08/21 03:03:56;;;;;;;7.00;1.73;;;16.00;99.90;;;;;;4218227;28;20161;-91
2022/08/21 03:06:29;;;;;;;14.25;1.70;;;16.00;99.90;;;;;;4220276;28;20185;-91
2022/08/21 03:08:37;;;;;;;12.05;1.88;;;15.80;99.90;;;;;;4235272;28;20193;-91
2022/08/21 03:10:45;;;;;;;6.80;1.60;;;15.80;99.90;;;;;;4224998;28;20178;-94
2022/08/21 03:12:50;;;;;;;11.05;1.70;;;15.70;99.90;;;;;;4201725;28;20186;-90
2022/08/21 03:14:51;;;;;;;5.38;1.60;;;15.70;99.90;;;;;;4218582;28;20638;-90
2022/08/21 03:16:51;;;;;;;8.43;1.92;;;15.80;99.90;;;;;;4218992;28;20178;-90
2022/08/21 03:18:52;;;;;;;9.73;2.33;;;15.70;99.90;;;;;;4203163;28;20197;-90
2022/08/21 03:20:59;;;;;;;10.48;1.63;;;15.70;99.90;;;;;;4203934;28;20190;-91
2022/08/21 03:23:03;;;;;;;9.27;1.58;;;15.70;99.90;;;;;;4221276;28;20178;-91
2022/08/21 03:25:10;;;;;;;6.97;1.42;;;15.70;99.90;;;;;;4220104;28;20305;-90
2022/08/21 03:27:12;;;;;;;8.98;1.42;;;15.70;99.90;;;;;;4218142;28;20186;-90
2022/08/21 03:29:13;;;;;;;10.23;1.85;;;15.60;99.90;;;;;;4202173;28;20193;-91
2022/08/21 03:31:14;;;;;;;6.78;1.75;;;15.60;99.90;;;;;;4220020;28;20202;-91
2022/08/21 03:33:37;;;;;;;11.32;1.63;;;15.60;99.90;;;;;;4220822;28;20244;-90
2022/08/21 03:35:40;;;;;;;13.82;2.03;;;15.60;99.90;;;;;;4217542;28;20167;-90
2022/08/21 03:37:56;;;;;;;7.15;1.95;;;15.60;99.90;;;;;;4220600;28;20596;-91
2022/08/21 03:39:57;;;;;;;6.28;1.70;;;15.60;99.90;;;;;;4220608;28;20186;-91
2022/08/21 03:41:59;;;;;;;9.63;1.77;;;15.50;99.90;;;;;;4219101;28;20196;-90
2022/08/21 03:44:00;;;;;;;9.90;1.83;;;15.50;99.90;;;;;;4202958;28;20654;-89
2022/08/21 03:46:03;;;;;;;7.47;1.90;;;15.30;99.90;;;;;;4201333;28;20170;-90
2022/08/21 03:48:08;;;;;;;10.75;1.50;;;15.40;99.90;;;;;;4201099;28;20290;-90
2022/08/21 03:50:14;;;;;;;10.35;1.90;;;15.40;99.90;;;;;;4239666;28;20146;-92
2022/08/21 03:52:15;;;;;;;10.32;1.83;;;15.40;99.90;;;;;;4221312;28;20287;-90
2022/08/21 03:54:19;;;;;;;7.75;1.80;;;15.40;99.90;;;;;;4219533;28;20530;-90
2022/08/21 03:56:20;;;;;;;9.77;1.85;;;15.40;99.90;;;;;;4220528;28;20174;-90
2022/08/21 03:58:24;;;;;;;6.22;1.80;;;15.40;99.90;;;;;;4202764;28;20230;-90
2022/08/21 04:00:27;;;;;;;10.88;1.92;;;15.20;99.90;;;;;;4204167;28;20218;-90
2022/08/21 04:02:32;;;;;;;6.88;1.95;;;15.20;99.90;;;;;;4200869;28;20190;-91
2022/08/21 04:04:34;;;;;;;8.75;2.20;;;15.20;99.90;;;;;;4218350;28;20174;-90
2022/08/21 04:06:36;;;;;;;8.02;2.00;;;15.20;99.90;;;;;;4217305;28;20166;-90
2022/08/21 04:08:37;;;;;;;8.35;1.73;;;15.20;99.90;;;;;;4218538;28;20198;-92
2022/08/21 04:10:39;;;;;;;5.72;1.73;;;15.30;99.90;;;;;;4221588;28;20180;-90
2022/08/21 04:12:40;;;;;;;9.50;2.10;;;15.30;99.90;;;;;;4218361;28;20158;-90
2022/08/21 04:14:48;;;;;;;9.27;1.90;;;15.20;99.90;;;;;;4219860;28;20177;-90
2022/08/21 04:16:49;;;;;;;10.82;2.13;;;15.30;99.90;;;;;;4232743;28;20169;-91
2022/08/21 04:18:50;;;;;;;7.65;2.38;;;15.30;99.90;;;;;;4218177;28;20227;-90
2022/08/21 04:20:54;;;;;;;7.70;1.92;;;15.20;99.90;;;;;;4184587;28;20274;-90
2022/08/21 04:22:55;;;;;;;9.52;2.17;;;15.30;99.90;;;;;;4216537;28;20176;-90
2022/08/21 04:24:55;;;;;;;11.23;2.00;;;15.30;99.90;;;;;;4218617;28;20247;-90
2022/08/21 04:26:57;;;;;;;8.52;1.85;;;15.20;99.90;;;;;;4199523;28;20175;-90
2022/08/21 04:28:58;;;;;;;8.05;1.67;;;15.30;99.90;;;;;;4201341;28;20735;-89
2022/08/21 04:30:59;;;;;;;6.18;1.90;;;15.30;99.90;;;;;;4218467;28;20166;-90
2022/08/21 04:32:59;;;;;;;5.95;1.90;;;15.30;99.90;;;;;;4220193;28;20181;-96
2022/08/21 04:35:03;;;;;;;8.77;2.20;;;15.30;99.90;;;;;;4218004;28;20654;-90
2022/08/21 04:37:09;;;;;;;11.18;1.95;;;15.20;99.90;;;;;;4239011;28;20170;-91
2022/08/21 04:39:14;;;;;;;12.40;1.90;;;15.30;99.90;;;;;;4220755;28;20194;-91
2022/08/21 04:41:15;;;;;;;8.93;1.95;;;15.30;99.90;;;;;;4216202;28;20660;-91
2022/08/21 04:43:18;;;;;;;10.68;2.10;;;15.30;99.90;;;;;;4216642;28;20177;-90
2022/08/21 04:45:30;;;;;;;9.65;1.77;;;15.40;99.90;;;;;;4218481;28;20177;-92
2022/08/21 04:47:32;;;;;;;6.22;1.70;;;15.40;99.90;;;;;;4235369;28;20192;-91
2022/08/21 04:49:34;;;;;;;6.35;1.83;;;15.40;99.90;;;;;;4216062;28;20195;-91
2022/08/21 04:51:38;;;;;;;13.80;2.40;;;15.40;99.90;;;;;;4219278;28;20642;-91
2022/08/21 04:53:57;;;;;;;10.02;2.00;;;15.50;99.90;;;;;;4215749;28;20243;-91
2022/08/21 04:56:02;;;;;;;15.88;1.83;;;15.50;99.90;;;;;;4218129;28;20177;-91
2022/08/21 04:58:11;;;;;;;7.65;1.77;;;15.50;99.90;;;;;;4218775;28;20268;-91
2022/08/21 05:00:18;;;;;;;13.10;1.88;;;15.50;99.90;;;;;;4217921;28;20223;-90
2022/08/21 05:02:22;;;;;;;9.93;1.75;;;15.40;99.90;;;;;;4218590;28;20174;-91
2022/08/21 05:04:46;;;;;;;10.02;1.85;;;15.40;99.90;;;;;;4235250;28;20200;-90
2022/08/21 05:06:48;;;;;;;9.85;1.55;;;15.40;99.90;;;;;;4217264;28;20566;-90
2022/08/21 05:08:52;;;;;;;10.75;2.08;;;15.50;99.90;;;;;;4219802;28;20170;-91
2022/08/21 05:10:54;;;;;;;5.85;1.70;;;15.60;99.90;;;;;;4217239;28;20177;-91
2022/08/21 05:13:18;;;;;;;8.73;1.67;;;15.60;99.90;;;;;;4217265;28;20182;-90
2022/08/21 05:15:20;;;;;;;10.15;2.00;;;15.60;99.90;;;;;;4220038;28;20212;-90
2022/08/21 05:17:21;;;;;;;7.13;1.60;;;15.60;99.90;;;;;;4221681;28;20565;-91
2022/08/21 05:19:23;;;;;;;7.10;1.70;;;15.70;99.90;;;;;;4219798;28;20226;-91
2022/08/21 05:21:25;;;;;;;7.20;1.80;;;15.70;99.90;;;;;;4220959;28;20181;-90
2022/08/21 05:23:27;;;;;;;8.05;1.98;;;15.80;99.90;;;;;;4216786;28;20531;-90
2022/08/21 05:25:34;;;;;;;8.48;2.00;;;15.70;99.90;;;;;;4217159;28;20224;-90
2022/08/21 05:27:35;;;;;;;7.97;1.63;;;15.80;99.90;;;;;;4224364;28;20173;-92
2022/08/21 05:29:36;;;;;;;7.22;1.70;;;15.80;99.90;;;;;;4224552;28;20194;-92
2022/08/21 05:31:39;;;;;;;8.15;1.80;;;15.90;99.90;;;;;;4226258;28;20154;-90
2022/08/21 05:33:39;;;;;;;10.30;2.05;;;15.90;99.90;;;;;;4215452;28;20165;-91
2022/08/21 05:35:40;;;;;;;7.60;1.60;;;15.90;99.90;;;;;;4210313;28;20186;-90
2022/08/21 05:37:41;;;;;;;6.20;2.00;;;15.80;99.90;;;;;;4227373;28;20174;-90
2022/08/21 05:39:42;;;;;;;5.45;1.50;;;15.80;99.90;;;;;;4204416;28;20256;-90
2022/08/21 05:41:43;;;;;;;12.90;1.77;;;15.80;99.90;;;;;;4205489;28;20193;-90
2022/08/21 05:43:45;;;;;;;7.65;1.77;;;15.70;99.90;;;;;;4208289;28;20187;-91
2022/08/21 05:45:48;;;;;;;7.53;1.60;;;15.80;99.90;;;;;;4221960;28;20511;-95
2022/08/21 05:47:49;;;;;;;6.47;1.70;;;15.70;99.90;;;;;;4221889;28;20253;-90
2022/08/21 05:49:50;;;;;;;11.13;2.50;;;15.80;99.90;;;;;;4223131;28;20177;-94
2022/08/21 05:51:51;;;;;;;6.07;1.95;;;15.80;99.90;;;;;;4187296;28;20191;-90
2022/08/21 05:53:54;;;;;;;10.30;1.85;;;16.00;99.90;;;;;;4205244;28;20173;-91
2022/08/21 05:55:54;;;;;;;7.28;1.88;;;16.00;99.90;;;;;;4221722;28;20186;-90
2022/08/21 05:57:55;;;;;;;6.00;1.65;;;16.10;99.90;;;;;;4221433;28;20547;-95
2022/08/21 05:59:56;;;;;;;8.48;1.73;;;16.10;99.90;;;;;;4204542;28;20304;-90
2022/08/21 06:01:57;;;;;;;6.43;1.63;;;16.20;99.90;;;;;;4201980;28;20256;-91
2022/08/21 06:03:58;;;;;;;7.97;1.92;;;16.30;99.90;;;;;;4222139;28;20185;-93
2022/08/21 06:05:59;;;;;;;7.75;1.63;;;16.30;99.90;;;;;;4225141;28;20170;-91
2022/08/21 06:07:59;;;;;;;7.82;1.75;;;16.30;99.90;;;;;;4227489;28;20165;-91
2022/08/21 06:10:00;;;;;;;7.20;1.60;;;16.40;99.90;;;;;;4219341;28;20654;-90
2022/08/21 06:12:09;;;;;;;7.38;1.70;;;16.60;99.90;;;;;;4223171;28;20182;-90
2022/08/21 06:14:13;;;;;;;7.50;1.80;;;16.90;99.90;;;;;;4225202;28;20178;-90
2022/08/21 06:16:19;;;;;;;5.88;1.67;;;16.90;99.90;;;;;;4223391;28;20534;-91
2022/08/21 06:18:20;;;;;;;10.15;1.88;;;17.00;99.90;;;;;;4222719;28;20273;-94
2022/08/21 06:20:22;;;;;;;8.02;1.40;;;17.00;99.90;;;;;;4203288;28;20222;-90
2022/08/21 06:22:29;;;;;;;6.05;1.60;;;17.10;99.90;;;;;;4223593;28;20166;-91
2022/08/21 06:24:30;;;;;;;11.75;1.95;;;17.00;99.90;;;;;;4226370;28;20201;-92
2022/08/21 06:26:31;;;;;;;8.00;1.48;;;17.10;99.90;;;;;;4226596;28;20185;-91
2022/08/21 06:28:34;;;;;;;5.78;1.60;;;17.20;99.90;;;;;;4207251;28;20203;-90
2022/08/21 06:30:37;;;;;;;13.30;2.13;;;17.40;99.90;;;;;;4204817;28;20186;-93
2022/08/21 06:32:40;;;;;;;8.20;1.83;;;17.40;99.90;;;;;;4221340;28;20169;-90
2022/08/21 06:34:41;;;;;;;11.52;2.17;;;17.50;99.90;;;;;;4221092;28;20174;-90
2022/08/21 06:36:43;;;;;;;7.40;1.88;;;17.50;99.90;;;;;;4222385;28;20197;-90
2022/08/21 06:38:55;;;;;;;7.97;1.23;;;17.70;99.90;;;;;;4208496;28;20289;-91
2022/08/21 06:40:59;;;;;;;10.35;1.80;;;17.80;99.90;;;;;;4222825;28;20213;-89
2022/08/21 06:43:11;;;;;;;8.68;1.40;;;17.80;99.90;;;;;;4221910;28;20642;-90
2022/08/21 06:45:21;;;;;;;6.65;1.48;;;17.90;99.90;;;;;;4225423;28;20268;-95
2022/08/21 06:47:23;;;;;;;4.72;1.58;;;18.00;99.90;;;;;;4223992;28;20170;-94
2022/08/21 06:49:24;;;;;;;8.80;1.90;;;18.20;99.90;;;;;;4224216;28;20237;-91
2022/08/21 06:51:26;;;;;;;11.43;1.48;;;18.20;99.90;;;;;;4224713;28;20166;-90
2022/08/21 06:53:27;;;;;;;12.13;1.95;;;18.30;99.90;;;;;;4221969;28;20182;-90
2022/08/21 06:55:28;;;;;;;10.18;1.80;;;18.40;99.90;;;;;;4224359;28;20198;-90
2022/08/21 06:57:28;;;;;;;6.03;1.55;;;18.30;99.90;;;;;;4209711;28;20183;-91
2022/08/21 06:59:35;;;;;;;9.32;1.50;;;18.40;99.90;;;;;;4211881;28;20229;-93
2022/08/21 07:01:39;;;;;;;7.63;1.73;;;18.60;99.90;;;;;;4205818;28;20155;-90
2022/08/21 07:03:56;;;;;;;6.97;1.73;;;18.50;99.90;;;;;;4223500;28;20178;-90
2022/08/21 07:06:05;;;;;;;8.07;1.80;;;18.70;99.90;;;;;;4223608;28;20246;-91
2022/08/21 07:08:08;;;;;;;9.80;1.67;;;19.00;99.90;;;;;;4237851;28;20185;-90
2022/08/21 07:10:09;;;;;;;9.10;1.38;;;19.00;99.90;;;;;;4221530;28;20573;-90
2022/08/21 07:12:10;;;;;;;9.75;1.70;;;19.10;99.90;;;;;;4206062;28;20635;-90
2022/08/21 07:14:11;;;;;;;7.07;1.50;;;19.40;99.90;;;;;;4204420;28;20190;-90
2022/08/21 07:16:11;;;;;;;6.63;1.48;;;19.90;99.90;;;;;;4205680;28;20155;-91
2022/08/21 07:18:17;;;;;;;12.85;1.90;;;21.30;99.90;;;;;;4221991;28;20185;-93
2022/08/21 07:20:26;;;;;;;8.20;1.13;;;23.30;99.90;;;;;;4220902;28;20259;-90
2022/08/21 07:22:27;;;;;;;11.43;1.33;;;25.30;99.90;;;;;;4221590;28;20209;-92
2022/08/21 07:24:29;;;;;;;8.38;1.63;;;26.80;99.90;;;;;;4224482;28;20177;-92
2022/08/21 07:26:30;;;;;;;12.05;1.70;;;28.00;99.90;;;;;;4221561;28;20174;-91
2022/08/21 07:28:31;;;;;;;10.00;1.50;;;28.80;99.90;;;;;;4236906;28;20192;-94
2022/08/21 07:30:32;;;;;;;6.18;1.20;;;29.90;99.90;;;;;;4219505;28;20170;-91
2022/08/21 07:32:33;;;;;;;6.10;1.23;;;30.50;99.90;;;;;;4201872;28;20174;-91
2022/08/21 07:34:33;;;;;;;8.75;2.15;;;30.30;99.90;;;;;;4199847;28;20178;-94
2022/08/21 07:36:34;;;;;;;4.93;1.17;;;30.50;99.90;;;;;;4199347;28;20175;-94
2022/08/21 07:38:36;;;;;;;7.50;1.40;;;31.00;99.90;;;;;;4215889;28;20256;-94
2022/08/21 07:40:36;;;;;;;9.65;1.45;;;30.90;99.90;;;;;;4199290;28;20289;-96
2022/08/21 07:42:46;;;;;;;5.28;1.50;;;30.70;99.90;;;;;;4198877;28;20712;-96
2022/08/21 07:44:47;;;;;;;6.70;1.40;;;30.90;99.90;;;;;;4198902;28;20179;-92
2022/08/21 07:46:48;;;;;;;5.30;1.45;;;31.10;99.90;;;;;;4215595;28;20170;-95
2022/08/21 07:48:49;;;;;;;7.35;1.60;;;30.30;99.90;;;;;;4215495;28;20186;-95
2022/08/21 07:50:50;;;;;;;8.20;1.55;;;30.20;99.90;;;;;;4215285;28;20693;-94
2022/08/21 07:52:52;;;;;;;9.02;1.75;;;30.60;99.90;;;;;;4215531;28;20187;-94
2022/08/21 07:54:53;;;;;;;13.10;1.83;;;30.60;99.90;;;;;;4198713;28;20234;-94
2022/08/21 07:56:54;;;;;;;15.30;1.80;;;30.90;99.90;;;;;;4198808;28;20171;-93
2022/08/21 07:58:55;;;;;;;9.20;1.50;;;30.10;99.90;;;;;;4198689;28;20199;-94
2022/08/21 08:00:56;;;;;;;7.50;1.65;;;29.90;99.90;;;;;;4198754;28;20174;-95
2022/08/21 08:02:57;;;;;;;7.90;1.55;;;29.80;99.90;;;;;;4198586;28;20174;-94
2022/08/21 08:05:07;;;;;;;7.65;1.63;;;29.60;99.90;;;;;;4198667;28;20163;-94
2022/08/21 08:07:08;;;;;;;9.88;1.50;;;29.50;99.90;;;;;;4198559;28;20646;-95
2022/08/21 08:09:09;;;;;;;7.97;1.48;;;29.80;99.90;;;;;;4198342;28;20186;-96
2022/08/21 08:11:11;;;;;;;11.50;1.65;;;29.70;99.90;;;;;;4198444;28;20178;-95
2022/08/21 08:13:12;;;;;;;7.97;1.48;;;29.70;99.90;;;;;;4215241;28;20262;-93
2022/08/21 08:15:21;;;;;;;10.65;1.77;;;30.00;99.90;;;;;;4198605;28;20171;-95
2022/08/21 08:17:23;;;;;;;6.22;1.52;;;29.90;99.90;;;;;;4215328;28;20316;-96
2022/08/21 08:19:24;;;;;;;10.57;2.22;;;30.40;99.90;;;;;;4198285;28;20198;-94
2022/08/21 08:21:24;;;;;;;9.93;1.42;;;30.70;99.90;;;;;;4198509;28;20182;-95
2022/08/21 08:23:26;;;;;;;7.65;1.98;;;31.00;99.90;;;;;;4198348;28;20646;-96
2022/08/21 08:25:27;;;;;;;8.57;1.42;;;30.80;99.90;;;;;;4198297;28;20213;-95
2022/08/21 08:27:28;;;;;;;7.97;1.70;;;31.50;99.90;;;;;;4215015;28;20169;-95
2022/08/21 08:29:30;;;;;;;7.55;1.50;;;31.40;99.90;;;;;;4198102;28;20195;-96
2022/08/21 08:31:31;;;;;;;9.45;1.50;;;32.10;99.90;;;;;;4198321;28;20603;-95
2022/08/21 08:33:32;;;;;;;7.60;1.30;;;32.10;99.90;;;;;;4214900;28;20170;-94
2022/08/21 08:35:33;;;;;;;9.73;1.77;;;31.60;99.90;;;;;;4198489;28;20181;-94
2022/08/21 08:37:37;;;;;;;5.00;1.50;;;31.20;99.90;;;;;;4198360;28;20630;-95
2022/08/21 08:39:38;;;;;;;8.32;1.55;;;31.00;99.90;;;;;;4197939;28;20198;-94
2022/08/21 08:41:43;;;;;;;8.65;1.70;;;31.20;99.90;;;;;;4214685;28;20715;-95
2022/08/21 08:43:51;;;;;;;12.45;1.38;;;31.50;99.90;;;;;;4215117;28;20167;-95
2022/08/21 08:45:55;;;;;;;6.78;1.67;;;31.70;99.90;;;;;;4214961;28;20652;-94
2022/08/21 08:48:02;;;;;;;6.80;1.73;;;32.10;99.90;;;;;;4215058;28;20255;-94
2022/08/21 08:50:06;;;;;;;5.95;1.55;;;32.10;99.90;;;;;;4215203;28;20174;-94
2022/08/21 08:52:15;;;;;;;6.30;1.55;;;32.00;99.90;;;;;;4215331;28;20256;-93
2022/08/21 08:54:25;;;;;;;6.05;1.58;;;31.80;99.90;;;;;;4215051;28;20173;-95
2022/08/21 08:56:32;;;;;;;7.57;1.80;;;32.00;99.90;;;;;;4198768;28;20260;-95
2022/08/21 08:58:39;;;;;;;7.85;1.80;;;32.30;99.90;;;;;;4215225;28;20719;-93
2022/08/21 09:00:40;;;;;;;7.30;1.52;;;32.60;99.90;;;;;;4214744;28;20231;-94
2022/08/21 09:02:43;;;;;;;9.35;1.92;;;32.70;99.90;;;;;;4214478;28;20205;-94
2022/08/21 09:04:47;;;;;;;8.95;1.58;;;33.20;99.90;;;;;;4214743;28;20256;-94
2022/08/21 09:07:15;;;;;;;7.82;1.83;;;33.10;99.90;;;;;;4215765;28;20174;-96
2022/08/21 09:09:28;;;;;;;6.38;1.80;;;32.60;99.90;;;;;;4214798;28;20193;-94
2022/08/21 09:11:45;;;;;;;7.10;1.80;;;32.10;99.90;;;;;;4215667;28;20268;-94
2022/08/21 09:14:12;;;;;;;7.03;1.67;;;31.00;99.90;;;;;;4215227;28;20212;-95
2022/08/21 09:16:46;;;;;;;9.48;1.90;;;31.60;99.90;;;;;;4215045;28;20169;-94
2022/08/21 09:19:09;;;;;;;7.15;1.60;;;31.80;99.90;;;;;;4194388;28;20270;-94
2022/08/21 09:22:10;;;;;;;9.95;1.63;;;31.80;99.90;;;;;;4215243;28;20672;-95
2022/08/21 09:24:41;;;;;;;8.13;1.60;;;32.30;99.90;;;;;;4149542;28;20200;-94
2022/08/21 09:26:59;;;;;;;7.82;1.52;;;32.00;99.90;;;;;;4190968;28;20182;-94
2022/08/21 09:29:00;;;;;;;6.13;1.60;;;31.50;99.90;;;;;;4215353;28;20697;-94
2022/08/21 09:31:06;;;;;;;9.32;1.63;;;32.70;99.90;;;;;;4198387;28;20223;-94
2022/08/21 09:33:09;;;;;;;8.25;1.67;;;33.40;99.90;;;;;;4197813;28;20252;-95
2022/08/21 09:35:20;;;;;;;8.68;1.58;;;33.40;99.90;;;;;;4198515;28;20187;-95
2022/08/21 09:37:20;;;;;;;9.40;1.70;;;33.40;99.90;;;;;;4198087;28;20252;-93
2022/08/21 09:39:39;;;;;;;9.23;1.98;;;33.50;99.90;;;;;;4197376;28;20221;-92
2022/08/21 09:41:40;;;;;;;11.15;1.92;;;33.00;99.90;;;;;;4214882;28;20193;-95
2022/08/21 09:43:53;;;;;;;9.88;2.20;;;32.50;99.90;;;;;;4197641;28;20190;-94
2022/08/21 09:46:07;;;;;;;12.30;2.15;;;32.60;99.90;;;;;;4198109;28;20210;-94
2022/08/21 09:48:18;;;;;;;8.18;1.30;;;32.20;99.90;;;;;;4198027;28;20210;-94
2022/08/21 09:50:26;;;;;;;13.35;1.90;;;31.50;99.90;;;;;;4197583;28;20304;-93
2022/08/21 09:52:27;;;;;;;6.13;1.60;;;30.90;99.90;;;;;;4197228;28;20277;-94
2022/08/21 09:54:38;;;;;;;8.00;1.73;;;30.10;99.90;;;;;;4197256;28;20174;-94
2022/08/21 09:59:19;;;;;;;7.82;1.55;;;29.60;99.90;;;;;;4231631;28;20226;-94
2022/08/21 10:01:22;;;;;;;10.77;1.70;;;29.80;99.90;;;;;;4213861;28;20199;-93
2022/08/21 10:03:24;;;;;;;7.20;1.85;;;29.80;99.90;;;;;;4214727;28;20203;-95
2022/08/21 10:05:27;;;;;;;8.32;1.73;;;29.70;99.90;;;;;;4197642;28;20190;-93
2022/08/21 10:07:30;;;;;;;9.18;2.25;;;30.20;99.90;;;;;;4198038;28;20262;-93
2022/08/21 10:09:32;;;;;;;10.90;1.65;;;30.80;99.90;;;;;;4197085;28;20183;-93
2022/08/21 10:11:34;;;;;;;14.70;1.80;;;29.80;99.90;;;;;;4197460;28;20182;-93
2022/08/21 10:13:35;;;;;;;8.25;1.55;;;29.40;99.90;;;;;;4198944;28;20233;-93
2022/08/21 10:15:51;;;;;;;9.95;1.33;;;28.70;99.90;;;;;;4200426;28;20216;-93
2022/08/21 10:18:07;;;;;;;8.50;1.60;;;28.90;99.90;;;;;;4201138;28;20185;-95
2022/08/21 10:20:18;;;;;;;10.40;1.95;;;28.80;99.90;;;;;;4218074;28;20213;-94
2022/08/21 10:22:36;;;;;;;12.10;1.90;;;28.60;99.90;;;;;;4200738;28;20228;-95
2022/08/21 10:25:02;;;;;;;8.80;1.75;;;28.30;99.90;;;;;;4202646;28;20631;-95
2022/08/21 10:27:08;;;;;;;13.48;2.00;;;27.90;99.90;;;;;;4216875;28;20177;-96
2022/08/21 10:29:33;;;;;;;11.10;1.95;;;28.40;99.90;;;;;;4221980;28;20224;-93
2022/08/21 10:31:55;;;;;;;12.80;2.15;;;27.80;99.90;;;;;;4219056;28;20583;-93
2022/08/21 10:34:11;;;;;;;8.05;1.88;;;27.50;99.90;;;;;;4215204;28;20184;-94
2022/08/21 10:36:39;;;;;;;10.32;1.67;;;26.50;99.90;;;;;;4215317;28;20186;-93
2022/08/21 10:38:59;;;;;;;11.50;1.60;;;26.60;99.90;;;;;;4215853;28;20598;-94
2022/08/21 10:41:33;;;;;;;12.80;1.80;;;27.10;99.90;;;;;;4217357;28;20623;-93
2022/08/21 10:44:09;;;;;;;12.80;2.08;;;27.50;99.90;;;;;;4215716;28;20918;-93
2022/08/21 10:46:13;;;;;;;12.55;1.70;;;27.50;99.90;;;;;;4216061;28;20264;-94
2022/08/21 10:48:27;;;;;;;12.88;1.48;;;27.10;99.90;;;;;;4215690;28;20206;-93
2022/08/21 10:50:50;;;;;;;11.13;1.75;;;26.90;99.90;;;;;;4215839;28;20170;-94
2022/08/21 10:52:57;;;;;;;10.48;1.80;;;26.70;99.90;;;;;;4215899;28;20182;-92